createdAt,value
2022-12-14T00:02:17.432Z,99647.38
2022-12-14T00:04:47.175Z,99658.22
2022-12-14T00:07:16.712Z,99653.06
2022-12-14T00:09:47.499Z,99652.91
2022-12-14T00:12:19.247Z,99655.81
2022-12-14T00:17:37.697Z,99657.09
2022-12-14T00:20:07.901Z,99660.06
2022-12-14T00:22:37.477Z,99662.69
2022-12-14T00:25:07.620Z,99666.34
2022-12-14T00:27:37.122Z,99662.16
2022-12-14T00:30:08.786Z,99652.16
2022-12-14T00:32:38.331Z,99653.50
2022-12-14T00:35:08.577Z,99658.94
2022-12-14T00:37:38.956Z,99653.63
2022-12-14T00:40:08.882Z,99648.81
2022-12-14T00:42:38.451Z,99656.41
2022-12-14T00:45:10.016Z,99659.69
2022-12-14T00:47:40.987Z,99658.84
2022-12-14T00:50:10.945Z,99670.47
2022-12-14T00:52:40.468Z,99671.31
2022-12-14T00:55:10.430Z,99669.19
2022-12-14T00:57:40.205Z,99664.84
2022-12-14T01:00:12.146Z,99666.00
2022-12-14T01:02:41.724Z,99663.72
2022-12-14T01:05:11.253Z,99666.75
2022-12-14T01:07:40.776Z,99679.78
2022-12-14T01:10:10.535Z,99676.84
2022-12-14T01:12:40.608Z,99676.41
2022-12-14T01:15:12.457Z,99683.22
2022-12-14T01:17:42.313Z,99671.44
2022-12-14T01:20:12.184Z,99673.56
2022-12-14T01:22:41.790Z,99668.91
2022-12-14T01:25:11.824Z,99664.16
2022-12-14T01:27:41.372Z,99671.66
2022-12-14T01:30:13.417Z,99660.66
2022-12-14T01:32:42.909Z,99657.34
2022-12-14T01:35:12.751Z,99666.06
2022-12-14T01:37:42.314Z,99674.44
2022-12-14T01:40:12.375Z,99672.28
2022-12-14T01:42:41.883Z,99676.16
2022-12-14T01:45:20.100Z,99675.50
2022-12-14T01:47:52.043Z,99669.56
2022-12-14T01:50:24.635Z,99677.16
2022-12-14T01:52:56.301Z,99682.41
2022-12-14T01:55:27.943Z,99679.13
2022-12-14T01:58:00.901Z,99680.00
2022-12-14T02:00:31.798Z,99678.28
2022-12-14T02:03:05.808Z,99666.56
2022-12-14T02:05:36.785Z,99673.19
2022-12-14T02:08:07.146Z,99670.63
2022-12-14T02:10:37.196Z,99667.47
2022-12-14T02:13:10.913Z,99664.84
2022-12-14T02:15:43.113Z,99669.34
2022-12-14T02:18:15.903Z,99671.97
2022-12-14T02:20:50.370Z,99673.03
2022-12-14T02:23:38.514Z,99679.56
2022-12-14T02:26:23.097Z,99673.72
2022-12-14T02:29:07.468Z,99677.41
2022-12-14T02:31:41.031Z,99681.53
2022-12-14T02:34:14.008Z,99683.09
2022-12-14T02:36:46.071Z,99674.78
2022-12-14T02:39:21.565Z,99674.91
2022-12-14T02:41:55.639Z,99679.25
2022-12-14T02:44:31.624Z,99680.69
2022-12-14T02:47:07.507Z,99674.38
2022-12-14T02:49:49.197Z,99674.22
2022-12-14T02:52:23.698Z,99668.91
2022-12-14T02:54:57.206Z,99673.19
2022-12-14T02:57:28.697Z,99674.16
2022-12-14T03:00:01.900Z,99683.53
2022-12-14T03:02:31.934Z,99677.69
2022-12-14T03:05:02.296Z,99686.94
2022-12-14T03:07:36.741Z,99686.31
2022-12-14T03:10:10.393Z,99687.13
2022-12-14T03:12:43.950Z,99691.72
2022-12-14T03:15:16.938Z,99685.50
2022-12-14T03:17:49.033Z,99674.84
2022-12-14T03:20:21.499Z,99685.34
2022-12-14T03:22:53.526Z,99680.53
2022-12-14T03:25:27.289Z,99684.44
2022-12-14T03:27:59.655Z,99682.50
2022-12-14T03:30:58.070Z,99687.75
2022-12-14T03:33:23.072Z,99682.03
2022-12-14T03:35:56.806Z,99695.38
2022-12-14T03:38:31.373Z,99687.75
2022-12-14T03:41:04.881Z,99693.16
2022-12-14T03:43:37.251Z,99688.94
2022-12-14T03:46:12.536Z,99700.69
2022-12-14T03:48:45.534Z,99700.78
2022-12-14T03:51:19.829Z,99697.50
2022-12-14T03:53:53.105Z,99700.97
2022-12-14T03:56:24.471Z,99682.03
2022-12-14T03:58:59.987Z,99688.25
2022-12-14T04:01:37.247Z,99679.53
2022-12-14T04:04:09.485Z,99678.13
2022-12-14T04:06:42.154Z,99676.84
2022-12-14T04:09:19.966Z,99673.72
2022-12-14T04:12:12.956Z,99664.63
2022-12-14T04:15:04.881Z,99650.00
2022-12-14T04:17:55.346Z,99640.00
2022-12-14T04:20:27.914Z,99638.59
2022-12-14T04:23:00.305Z,99639.13
2022-12-14T04:25:49.496Z,99639.28
2022-12-14T04:28:37.479Z,99637.28
2022-12-14T04:31:09.033Z,99633.78
2022-12-14T04:33:50.554Z,99630.84
2022-12-14T04:36:25.102Z,99618.00
2022-12-14T04:38:57.729Z,99630.56
2022-12-14T04:41:30.930Z,99626.81
2022-12-14T04:44:02.135Z,99634.25
2022-12-14T04:46:37.569Z,99637.66
2022-12-14T04:49:13.974Z,99651.72
2022-12-14T04:51:48.278Z,99654.28
2022-12-14T04:54:22.293Z,99645.34
2022-12-14T04:56:54.337Z,99656.00
2022-12-14T04:59:25.038Z,99654.13
2022-12-14T05:01:59.434Z,99655.84
2022-12-14T05:04:40.355Z,99654.41
2022-12-14T05:07:17.089Z,99659.22
2022-12-14T05:09:52.386Z,99656.41
2022-12-14T05:12:24.733Z,99647.53
2022-12-14T05:14:59.915Z,99654.97
2022-12-14T05:17:29.901Z,99664.63
2022-12-14T05:20:00.759Z,99664.56
2022-12-14T05:22:30.261Z,99663.34
2022-12-14T05:24:59.881Z,99663.34
2022-12-14T05:27:29.507Z,99670.59
2022-12-14T05:29:59.843Z,99667.63
2022-12-14T05:32:29.826Z,99662.38
2022-12-14T05:35:00.862Z,99667.91
2022-12-14T05:37:30.718Z,99668.19
2022-12-14T05:40:00.443Z,99678.06
2022-12-14T05:42:31.356Z,99677.84
2022-12-14T05:45:01.003Z,99681.59
2022-12-14T05:47:30.628Z,99684.81
2022-12-14T05:50:01.484Z,99693.63
2022-12-14T05:52:31.065Z,99697.06
2022-12-14T05:55:04.154Z,99697.88
2022-12-14T05:57:34.461Z,99702.31
2022-12-14T06:00:04.615Z,99704.13
2022-12-14T06:02:34.415Z,99706.28
2022-12-14T06:05:05.630Z,99705.09
2022-12-14T06:07:35.201Z,99709.44
2022-12-14T06:10:05.059Z,99704.78
2022-12-14T06:12:35.378Z,99708.38
2022-12-14T06:15:05.806Z,99707.94
2022-12-14T06:17:36.094Z,99706.66
2022-12-14T06:20:07.636Z,99712.16
2022-12-14T06:22:39.487Z,99704.78
2022-12-14T06:25:12.536Z,99710.72
2022-12-14T06:27:42.467Z,99719.13
2022-12-14T06:30:13.168Z,99713.44
2022-12-14T06:32:43.009Z,99712.22
2022-12-14T06:35:14.128Z,99711.25
2022-12-14T06:37:43.761Z,99713.63
2022-12-14T06:40:18.783Z,99717.75
2022-12-14T06:42:48.506Z,99720.25
2022-12-14T06:45:18.372Z,99733.19
2022-12-14T06:47:47.957Z,99732.66
2022-12-14T06:50:19.039Z,99730.69
2022-12-14T06:52:49.846Z,99724.69
2022-12-14T06:55:19.679Z,99740.16
2022-12-14T06:57:50.957Z,99737.22
2022-12-14T07:00:20.919Z,99740.44
2022-12-14T07:02:51.086Z,99737.81
2022-12-14T07:05:22.453Z,99730.53
2022-12-14T07:07:52.323Z,99734.09
2022-12-14T07:10:21.916Z,99740.16
2022-12-14T07:12:52.476Z,99746.19
2022-12-14T07:15:22.990Z,99740.63
2022-12-14T07:17:52.790Z,99746.16
2022-12-14T07:20:23.862Z,99745.47
2022-12-14T07:22:53.558Z,99751.13
2022-12-14T07:25:23.224Z,99756.69
2022-12-14T07:27:52.950Z,99764.88
2022-12-14T07:30:22.518Z,99752.84
2022-12-14T07:32:52.114Z,99752.06
2022-12-14T07:35:23.147Z,99750.22
2022-12-14T07:37:52.907Z,99741.72
2022-12-14T07:40:23.174Z,99747.34
2022-12-14T07:42:52.757Z,99751.56
2022-12-14T07:45:22.306Z,99756.28
2022-12-14T07:47:51.835Z,99752.69
2022-12-14T07:50:21.369Z,99746.91
2022-12-14T07:52:52.362Z,99749.13
2022-12-14T07:55:21.971Z,99755.47
2022-12-14T07:57:51.410Z,99761.81
2022-12-14T08:00:21.513Z,99770.78
2022-12-14T08:05:39.163Z,99771.34
2022-12-14T08:08:10.332Z,99781.44
2022-12-14T08:10:40.696Z,99782.53
2022-12-14T08:13:10.902Z,99789.78
2022-12-14T08:15:40.937Z,99788.88
2022-12-14T08:18:10.918Z,99797.94
2022-12-14T08:20:40.427Z,99798.94
2022-12-14T08:23:11.483Z,99790.19
2022-12-14T08:25:41.328Z,99798.25
2022-12-14T08:28:11.189Z,99781.06
2022-12-14T08:30:40.798Z,99795.22
2022-12-14T08:33:10.512Z,99790.22
2022-12-14T08:35:40.764Z,99796.66
2022-12-14T08:38:11.826Z,99798.75
2022-12-14T08:40:42.174Z,99785.03
2022-12-14T08:43:11.794Z,99785.38
2022-12-14T08:45:41.469Z,99778.47
2022-12-14T08:48:11.243Z,99768.66
2022-12-14T08:50:40.946Z,99764.28
2022-12-14T08:53:11.967Z,99754.47
2022-12-14T08:55:41.537Z,99759.41
2022-12-14T08:58:11.479Z,99754.31
2022-12-14T09:00:41.000Z,99743.59
2022-12-14T09:03:11.897Z,99728.97
2022-12-14T09:05:41.524Z,99738.44
2022-12-14T09:08:12.673Z,99731.91
2022-12-14T09:10:42.177Z,99728.91
2022-12-14T09:13:13.225Z,99728.19
2022-12-14T09:15:43.352Z,99724.44
2022-12-14T09:18:13.074Z,99724.53
2022-12-14T09:20:44.181Z,99719.88
2022-12-14T09:23:15.109Z,99715.63
2022-12-14T09:25:44.561Z,99713.69
2022-12-14T09:28:14.398Z,99717.09
2022-12-14T09:30:46.223Z,99715.59
2022-12-14T09:33:16.045Z,99715.88
2022-12-14T09:35:45.621Z,99714.16
2022-12-14T09:38:16.700Z,99710.50
2022-12-14T09:40:50.407Z,99714.31
2022-12-14T09:43:27.556Z,99702.78
2022-12-14T09:46:01.921Z,99700.91
2022-12-14T09:48:32.028Z,99691.25
2022-12-14T09:51:02.123Z,99673.97
2022-12-14T09:53:33.949Z,99666.72
2022-12-14T09:56:04.447Z,99664.88
2022-12-14T09:58:34.903Z,99657.44
2022-12-14T10:01:10.133Z,99651.88
2022-12-14T10:03:47.894Z,99646.03
2022-12-14T10:06:28.208Z,99645.75
2022-12-14T10:09:04.726Z,99641.50
2022-12-14T10:11:40.999Z,99650.09
2022-12-14T10:14:18.253Z,99644.72
2022-12-14T10:16:52.602Z,99651.22
2022-12-14T10:19:36.217Z,99661.03
2022-12-14T10:22:10.055Z,99649.44
2022-12-14T10:24:43.718Z,99645.97
2022-12-14T10:27:17.908Z,99653.59
2022-12-14T10:29:49.546Z,99653.47
2022-12-14T10:32:21.569Z,99644.75
2022-12-14T10:34:51.728Z,99642.88
2022-12-14T10:37:25.994Z,99630.50
2022-12-14T10:40:10.852Z,99634.88
2022-12-14T10:42:49.620Z,99631.38
2022-12-14T10:45:41.936Z,99632.81
2022-12-14T10:48:22.439Z,99623.72
2022-12-14T10:50:54.921Z,99629.97
2022-12-14T10:53:29.279Z,99623.53
2022-12-14T10:56:03.213Z,99624.28
2022-12-14T10:58:33.059Z,99620.50
2022-12-14T11:01:02.914Z,99619.50
2022-12-14T11:03:32.638Z,99615.03
2022-12-14T11:06:07.644Z,99608.97
2022-12-14T11:08:41.658Z,99601.88
2022-12-14T11:11:18.921Z,99595.25
2022-12-14T11:13:50.551Z,99597.31
2022-12-14T11:16:35.425Z,99595.75
2022-12-14T11:19:07.191Z,99596.94
2022-12-14T11:21:37.947Z,99599.09
2022-12-14T11:24:08.242Z,99597.66
2022-12-14T11:26:40.843Z,99580.34
2022-12-14T11:29:17.700Z,99584.13
2022-12-14T11:31:48.389Z,99579.47
2022-12-14T11:34:22.774Z,99572.19
2022-12-14T11:36:52.513Z,99564.69
2022-12-14T11:39:23.419Z,99566.19
2022-12-14T11:42:02.519Z,99556.94
2022-12-14T11:44:33.463Z,99549.88
2022-12-14T11:47:04.631Z,99550.50
2022-12-14T11:49:35.575Z,99546.78
2022-12-14T11:52:10.751Z,99546.44
2022-12-14T11:54:41.058Z,99542.44
2022-12-14T11:57:22.716Z,99534.94
2022-12-14T11:59:53.602Z,99534.44
2022-12-14T12:02:26.933Z,99534.13
2022-12-14T12:04:59.349Z,99534.66
2022-12-14T12:07:32.217Z,99529.38
2022-12-14T12:10:03.453Z,99532.97
2022-12-14T12:12:35.576Z,99533.94
2022-12-14T12:15:06.479Z,99538.81
2022-12-14T12:17:41.374Z,99531.91
2022-12-14T12:20:19.426Z,99527.34
2022-12-14T12:22:50.884Z,99537.00
2022-12-14T12:25:27.536Z,99533.41
2022-12-14T12:28:01.613Z,99520.28
2022-12-14T12:30:34.460Z,99521.44
2022-12-14T12:33:23.047Z,99510.50
2022-12-14T12:35:54.878Z,99517.72
2022-12-14T12:38:37.512Z,99506.28
2022-12-14T12:41:13.958Z,99505.41
2022-12-14T12:43:50.394Z,99501.84
2022-12-14T12:46:21.457Z,99506.91
2022-12-14T12:48:53.162Z,99507.47
2022-12-14T12:51:24.186Z,99505.97
2022-12-14T12:53:56.052Z,99511.28
2022-12-14T12:56:28.090Z,99511.16
2022-12-14T12:59:00.083Z,99518.16
2022-12-14T13:01:31.107Z,99509.47
2022-12-14T13:04:03.691Z,99512.22
2022-12-14T13:06:36.175Z,99506.91
2022-12-14T13:09:12.973Z,99514.97
2022-12-14T13:11:48.813Z,99505.88
2022-12-14T13:14:24.941Z,99498.03
2022-12-14T13:16:55.268Z,99497.06
2022-12-14T13:22:21.313Z,99501.53
2022-12-14T13:24:56.992Z,99499.72
2022-12-14T13:27:46.290Z,99492.63
2022-12-14T13:30:25.937Z,99503.97
2022-12-14T13:33:12.379Z,99505.88
2022-12-14T13:39:01.641Z,99504.81
2022-12-14T13:41:35.295Z,99515.59
2022-12-14T13:44:18.802Z,99508.41
2022-12-14T13:46:57.624Z,99502.47
2022-12-14T13:49:28.157Z,99510.28
2022-12-14T13:51:58.145Z,99515.59
2022-12-14T13:54:29.289Z,99515.59
2022-12-14T13:57:04.587Z,99508.31
2022-12-14T13:59:35.755Z,99517.84
2022-12-14T14:02:07.236Z,99517.09
2022-12-14T14:04:36.777Z,99512.09
2022-12-14T14:07:25.069Z,99511.16
2022-12-14T14:10:01.977Z,99507.56
2022-12-14T14:12:39.975Z,99507.88
2022-12-14T14:15:26.281Z,99502.78
2022-12-14T14:18:03.230Z,99496.00
2022-12-14T14:20:43.186Z,99497.19
2022-12-14T14:23:31.821Z,99487.53
2022-12-14T14:26:20.308Z,99493.66
2022-12-14T14:28:53.763Z,99496.19
2022-12-14T14:31:23.800Z,99484.03
2022-12-14T14:33:57.277Z,99485.84
2022-12-14T14:36:30.447Z,99485.84
2022-12-14T14:39:00.917Z,99484.34
2022-12-14T14:41:33.930Z,99492.47
2022-12-14T14:44:05.855Z,99488.22
2022-12-14T14:46:37.332Z,99482.31
2022-12-14T14:49:20.382Z,99485.69
2022-12-14T14:51:50.158Z,99498.09
2022-12-14T14:55:10.761Z,99496.47
2022-12-14T14:57:36.131Z,99495.75
2022-12-14T15:00:07.289Z,99491.59
2022-12-14T15:02:42.206Z,99493.78
2022-12-14T15:05:41.635Z,99503.84
2022-12-14T15:08:15.980Z,99509.44
2022-12-14T15:10:46.704Z,99499.03
2022-12-14T15:13:19.885Z,99497.66
2022-12-14T15:15:51.304Z,99483.69
2022-12-14T15:18:22.429Z,99482.94
2022-12-14T15:20:58.475Z,99477.00
2022-12-14T15:23:33.331Z,99469.47
2022-12-14T15:26:03.922Z,99464.50
2022-12-14T15:28:33.654Z,99467.88
2022-12-14T15:31:03.170Z,99456.56
2022-12-14T15:33:34.629Z,99445.13
2022-12-14T15:36:06.971Z,99442.69
2022-12-14T15:38:37.984Z,99435.16
2022-12-14T15:41:13.877Z,99444.22
2022-12-14T15:43:44.741Z,99441.38
2022-12-14T15:46:16.377Z,99432.72
2022-12-14T15:48:46.642Z,99429.25
2022-12-14T15:51:18.802Z,99425.63
2022-12-14T15:53:50.386Z,99426.50
2022-12-14T15:56:26.798Z,99428.38
2022-12-14T15:58:57.412Z,99419.19
2022-12-14T16:01:28.913Z,99437.78
2022-12-14T16:04:00.376Z,99443.53
2022-12-14T16:06:32.527Z,99444.28
2022-12-14T16:09:04.776Z,99450.16
2022-12-14T16:11:36.839Z,99444.50
2022-12-14T16:14:16.089Z,99444.59
2022-12-14T16:16:47.471Z,99447.53
2022-12-14T16:19:27.124Z,99457.78
2022-12-14T16:22:21.587Z,99454.41
2022-12-14T16:25:17.435Z,99453.22
2022-12-14T16:27:50.179Z,99458.38
2022-12-14T16:30:22.184Z,99461.22
2022-12-14T16:32:53.135Z,99462.44
2022-12-14T16:35:25.665Z,99459.22
2022-12-14T16:37:56.460Z,99456.59
2022-12-14T16:40:31.384Z,99463.66
2022-12-14T16:43:01.127Z,99455.25
2022-12-14T16:45:53.554Z,99454.22
2022-12-14T16:48:24.729Z,99438.28
2022-12-14T16:51:17.767Z,99438.28
2022-12-14T16:53:51.146Z,99426.78
2022-12-14T16:56:23.093Z,99432.78
2022-12-14T16:58:54.260Z,99426.97
2022-12-14T17:01:24.652Z,99418.59
2022-12-14T17:04:03.108Z,99406.50
2022-12-14T17:06:41.175Z,99409.16
2022-12-14T17:09:20.023Z,99412.09
2022-12-14T17:11:54.046Z,99409.66
2022-12-14T17:14:24.270Z,99416.16
2022-12-14T17:16:59.185Z,99422.75
2022-12-14T17:19:31.547Z,99416.66
2022-12-14T17:22:01.912Z,99427.56
2022-12-14T17:24:32.737Z,99431.81
2022-12-14T17:27:04.622Z,99425.22
2022-12-14T17:29:34.464Z,99422.75
2022-12-14T17:32:04.136Z,99427.75
2022-12-14T17:34:34.000Z,99420.31
2022-12-14T17:37:03.528Z,99429.56
2022-12-14T17:39:35.694Z,99430.50
2022-12-14T17:42:06.959Z,99430.59
2022-12-14T17:44:36.509Z,99431.16
2022-12-14T17:47:06.106Z,99436.81
2022-12-14T17:49:35.697Z,99437.75
2022-12-14T17:52:06.858Z,99425.09
2022-12-14T17:54:36.470Z,99421.34
2022-12-14T17:57:11.880Z,99419.00
2022-12-14T17:59:45.850Z,99415.53
2022-12-14T18:02:25.817Z,99407.13
2022-12-14T18:04:55.605Z,99404.19
2022-12-14T18:07:25.303Z,99399.00
2022-12-14T18:09:54.915Z,99386.75
2022-12-14T18:12:26.860Z,99384.22
2022-12-14T18:14:56.856Z,99383.28
2022-12-14T18:17:27.018Z,99378.00
2022-12-14T18:19:56.561Z,99378.84
2022-12-14T18:22:26.088Z,99382.88
2022-12-14T18:24:56.044Z,99371.22
2022-12-14T18:27:27.500Z,99376.59
2022-12-14T18:29:56.990Z,99374.63
2022-12-14T18:32:26.574Z,99364.34
2022-12-14T18:34:56.087Z,99374.16
2022-12-14T18:37:31.198Z,99374.25
2022-12-14T18:40:02.484Z,99369.63
2022-12-14T18:42:33.484Z,99384.69
2022-12-14T18:45:06.192Z,99390.47
2022-12-14T18:47:43.090Z,99402.22
2022-12-14T18:50:13.237Z,99406.81
2022-12-14T18:52:43.497Z,99416.31
2022-12-14T18:55:16.234Z,99416.13
2022-12-14T18:57:48.349Z,99423.22
2022-12-14T19:00:19.741Z,99418.50
2022-12-14T19:02:50.162Z,99413.22
2022-12-14T19:05:25.583Z,99408.09
2022-12-14T19:07:57.014Z,99412.34
2022-12-14T19:10:27.945Z,99418.09
2022-12-14T19:13:00.360Z,99430.25
2022-12-14T19:15:31.958Z,99439.25
2022-12-14T19:18:02.192Z,99425.59
2022-12-14T19:20:32.274Z,99425.75
2022-12-14T19:23:02.644Z,99425.91
2022-12-14T19:25:32.816Z,99431.91
2022-12-14T19:28:33.949Z,99421.91
2022-12-14T19:30:53.821Z,99414.28
2022-12-14T19:33:24.050Z,99412.13
2022-12-14T19:35:53.995Z,99416.03
2022-12-14T19:38:23.593Z,99412.84
2022-12-14T19:41:00.890Z,99407.41
2022-12-14T19:43:32.413Z,99402.88
2022-12-14T19:46:06.141Z,99393.13
2022-12-14T19:48:35.955Z,99396.59
2022-12-14T19:51:06.334Z,99381.47
2022-12-14T19:53:36.564Z,99378.25
2022-12-14T19:56:06.546Z,99377.34
2022-12-14T19:58:37.739Z,99372.59
2022-12-14T20:01:09.050Z,99372.59
2022-12-14T20:03:39.049Z,99363.69
2022-12-14T20:06:09.317Z,99350.22
2022-12-14T20:08:39.101Z,99345.56
2022-12-14T20:11:09.607Z,99357.03
2022-12-14T20:13:41.180Z,99346.47
2022-12-14T20:16:16.595Z,99348.38
2022-12-14T20:18:46.764Z,99334.31
2022-12-14T20:21:21.879Z,99324.19
2022-12-14T20:23:51.997Z,99325.91
2022-12-14T20:26:22.698Z,99317.03
2022-12-14T20:28:54.830Z,99309.59
2022-12-14T20:31:24.714Z,99320.81
2022-12-14T20:33:54.798Z,99310.53
2022-12-14T20:36:24.565Z,99305.66
2022-12-14T20:38:56.749Z,99302.56
2022-12-14T20:41:27.015Z,99305.94
2022-12-14T20:44:00.104Z,99300.28
2022-12-14T20:46:30.985Z,99298.69
2022-12-14T20:49:02.268Z,99287.13
2022-12-14T20:51:32.987Z,99277.44
2022-12-14T20:54:03.001Z,99273.28
2022-12-14T20:56:32.865Z,99265.84
2022-12-14T20:59:04.438Z,99255.56
2022-12-14T21:01:34.591Z,99245.41
2022-12-14T21:04:04.958Z,99256.16
2022-12-14T21:06:37.791Z,99255.78
2022-12-14T21:09:09.810Z,99242.69
2022-12-14T21:11:59.423Z,99213.22
2022-12-14T21:14:32.365Z,99218.59
2022-12-14T21:17:03.938Z,99215.75
2022-12-14T21:19:34.036Z,99221.78
2022-12-14T21:22:04.161Z,99222.44
2022-12-14T21:27:26.693Z,99207.09
2022-12-14T21:29:58.214Z,99213.13
2022-12-14T21:32:27.802Z,99212.91
2022-12-14T21:34:57.400Z,99224.03
2022-12-14T21:37:26.980Z,99223.59
2022-12-14T21:39:56.579Z,99227.16
2022-12-14T21:42:25.467Z,99222.53
2022-12-14T21:44:55.353Z,99227.34
2022-12-14T21:47:27.428Z,99214.72
2022-12-14T21:49:57.218Z,99192.50
2022-12-14T21:52:28.553Z,99167.06
2022-12-14T21:54:59.838Z,99153.44
2022-12-14T21:57:49.794Z,99150.72
2022-12-14T22:00:20.102Z,99148.34
2022-12-14T22:02:51.014Z,99160.63
2022-12-14T22:05:20.656Z,99170.69
2022-12-14T22:07:51.947Z,99166.66
2022-12-14T22:10:25.103Z,99165.75
2022-12-14T22:12:55.310Z,99163.50
2022-12-14T22:15:25.461Z,99149.66
2022-12-14T22:17:56.440Z,99146.00
2022-12-14T22:20:25.954Z,99137.38
2022-12-14T22:22:56.143Z,99134.34
2022-12-14T22:25:25.786Z,99127.56
2022-12-14T22:27:55.320Z,99123.47
2022-12-14T22:30:29.906Z,99119.41
2022-12-14T22:33:02.456Z,99105.13
2022-12-14T22:35:32.137Z,99116.03
2022-12-14T22:38:01.689Z,99124.16
2022-12-14T22:40:31.867Z,99118.72
2022-12-14T22:43:01.428Z,99112.84
2022-12-14T22:45:30.957Z,99106.53
2022-12-14T22:48:00.517Z,99102.13
2022-12-14T22:50:33.054Z,99086.09
2022-12-14T22:53:02.608Z,99073.03
2022-12-14T22:55:35.414Z,99067.09
2022-12-14T22:58:05.143Z,99074.38
2022-12-14T23:00:34.698Z,99070.75
2022-12-14T23:03:19.286Z,99065.50
2022-12-14T23:06:05.414Z,99057.47
2022-12-14T23:09:07.747Z,99051.31
2022-12-14T23:11:55.189Z,99054.13
2022-12-14T23:14:42.515Z,99026.81
2022-12-14T23:17:29.931Z,99025.69
2022-12-14T23:20:16.637Z,99029.78
2022-12-14T23:23:05.327Z,99036.94
2022-12-14T23:25:52.772Z,99025.25
2022-12-14T23:28:39.949Z,99009.13
2022-12-14T23:31:26.979Z,99020.41
2022-12-14T23:34:13.977Z,99021.06
2022-12-14T23:37:00.956Z,99021.81
2022-12-14T23:39:49.395Z,99027.63
2022-12-14T23:42:36.268Z,99031.31
2022-12-14T23:45:23.779Z,99014.44
2022-12-14T23:48:14.394Z,99015.16
2022-12-14T23:51:01.213Z,99006.44
2022-12-14T23:53:50.194Z,98993.69
2022-12-14T23:56:38.635Z,99024.78
2022-12-14T23:59:31.450Z,99015.94
